Nearby METAR Reports

 

EGMC - Southend-On-Sea, United Kingdom
Distance from station: NE 10km
Updated: 08/12/2021 14:50
Mostly cloudy
Mostly cloudy
 Wind from WSW
Wind: WSW 15 mph , 24 km/h
Temperature: 8°C
Wind Chill: 4°C
Dew Point: 1°C
Humidity: 62%
Barometer: 993 hPa
Clouds: Mostly cloudy
Visibility: 6 miles , 10 km
Cloud details: Few Clouds 1189 m
Mostly cloudy 1341 m
2021/12/08 14:50 EGMC 081450Z 24013KT 9999 FEW039 BKN044 08/01 Q0993
EGLC - London City Airp, United Kingdom
Distance from station: W 37km
Updated: 08/12/2021 14:50
Mostly cloudy
Mostly cloudy
 Wind from WSW
Wind: WSW 15 mph , 24 km/h
Temperature: 9°C
Wind Chill: 6°C
Dew Point: 1°C
Humidity: 58%
Barometer: 993 hPa
Clouds: Mostly cloudy
Visibility: 6 miles , 10 km
Cloud details: Mostly cloudy 1189 m
2021/12/08 14:50 EGLC 081450Z AUTO 24013KT 9999 BKN039 09/01 Q0993
EGKB - Biggin Hill, United Kingdom
Distance from station: WSW 45km
Updated: 08/12/2021 14:50
Mostly cloudy
Mostly cloudy
 Wind from WSW
Wind: WSW 14 mph , 22 km/h
Temperature: 7°C
Wind Chill: 4°C
Dew Point: 1°C
Humidity: 66%
Barometer: 993 hPa
Clouds: Mostly cloudy
Visibility: 6 miles , 10 km
Cloud details: Mostly cloudy 975 m
2021/12/08 14:50 EGKB 081450Z 25012KT 210V290 9999 BKN032 07/01 Q0993
 
EGSS - Stansted Airport, United Kingdom
Distance from station: NNW 48km
Updated: 08/12/2021 14:50
Overcast
Overcast
 Wind from SW
Wind: SW 16 mph , 26 km/h
Temperature: 7°C
Wind Chill: 3°C
Dew Point: 1°C
Humidity: 66%
Barometer: 992 hPa
Clouds: Overcast
Visibility: 6 miles , 10 km
Cloud details: Overcast 1067 m
2021/12/08 14:50 EGSS 081450Z AUTO 23014KT 9999 OVC035 07/01 Q0992
EGKK - London/Gatwick A, United Kingdom
Distance from station: SW 67km
Updated: 08/12/2021 14:50
Partly cloudy
Partly cloudy
 Wind from WSW
Wind: WSW 15 mph , 24 km/h
Temperature: 8°C
Wind Chill: 4°C
Dew Point: 1°C
Humidity: 62%
Barometer: 994 hPa
Clouds: Partly cloudy
Visibility: 6 miles , 10 km
Cloud details: Partly cloudy 1006 m
2021/12/08 14:50 EGKK 081450Z 25013KT 9999 SCT033 08/01 Q0994
EGMD - Lydd Airport, United Kingdom
Distance from station: SSE 67km
Updated: 08/12/2021 14:50
Clear
Clear
 Wind from WSW
Wind: WSW 16 mph , 26 km/h
Temperature: 9°C
Wind Chill: 6°C
Dew Point: 3°C
Humidity: 66%
Barometer: 995 hPa
Clouds: Clear
Visibility: 6 miles , 10 km
2021/12/08 14:50 EGMD 081450Z AUTO 25014KT 9999 NCD 09/03 Q0995
 
EGWU - Northolt Raf, United Kingdom
Distance from station: W 69km
Updated: 08/12/2021 14:20
Mostly cloudy
Mostly cloudy
 Wind from WSW
Wind: WSW 16 mph , 26 km/h
Temperature: 8°C
Wind Chill: 4°C
Dew Point: 1°C
Humidity: 62%
Barometer: 992 hPa
Clouds: Mostly cloudy
Visibility: 6 miles , 10 km
Cloud details: Mostly cloudy 1158 m
Mostly cloudy 1524 m
2021/12/08 14:20 EGWU 081420Z 25014KT 9999 BKN038 BKN050 08/01 Q0992 NOSIG RMK BLU BLU
EGLL - London/Heathrow, United Kingdom
Distance from station: W 72km
Updated: 08/12/2021 14:20
Mostly cloudy
Mostly cloudy
 Wind from WSW
Wind: WSW 18 mph , 30 km/h
Temperature: 8°C
Wind Chill: 4°C
Dew Point: 1°C
Humidity: 62%
Barometer: 992 hPa
Clouds: Mostly cloudy
Visibility: 6 miles , 10 km
Cloud details: Mostly cloudy 1097 m
2021/12/08 14:20 EGLL 081420Z AUTO 25016KT 9999 BKN036 08/01 Q0992
EGUW - Wattisham Raf, United Kingdom
Distance from station: NNE 72km
Updated: 08/12/2021 13:50
Light rain, Mostly cloudy
Light rain, Mostly cloudy
 Wind from WSW
Wind: WSW 20 mph , 31 km/h
Temperature: 6°C
Wind Chill: 1°C
Dew Point: 3°C
Humidity: 81%
Barometer: 990 hPa
Summary: Light rain
Clouds: Mostly cloudy
Visibility: 6 miles , 10 km
Cloud details: Partly cloudy 914 m
Mostly cloudy 1524 m
2021/12/08 13:50 EGUW 081350Z 24017KT 9999 -RA SCT030 BKN050 06/03 Q0990 NOSIG RMK BLU BLU
 
EGGW - Luton Airport, United Kingdom
Distance from station: WNW 76km
Updated: 08/12/2021 14:50
Overcast
Overcast
 Wind from WSW
Wind: WSW 16 mph , 26 km/h, Gust: 28 mph , 44 km/h
Temperature: 6°C
Wind Chill: 2°C
Dew Point: 2°C
Humidity: 76%
Barometer: 991 hPa
Clouds: Overcast
Visibility: 6 miles , 10 km
Cloud details: Overcast 1036 m
2021/12/08 14:50 EGGW 081450Z AUTO 24014G24KT 9999 OVC034 06/02 Q0991
EGSC - Cambridge, United Kingdom
Distance from station: NNW 81km
Updated: 08/12/2021 14:50
Mostly cloudy
Mostly cloudy
 Wind from SW
Wind: SW 16 mph , 26 km/h
Temperature: 7°C
Wind Chill: 3°C
Dew Point: 2°C
Humidity: 71%
Barometer: 991 hPa
Clouds: Mostly cloudy
Visibility: 6 miles , 10 km
Cloud details: Mostly cloudy 975 m
2021/12/08 14:50 EGSC 081450Z 23014KT 190V250 9999 BKN032 07/02 Q0991